Ojibwa, Wisconsin
Current Conditions -  °F | °C
As of 8:15 PM on Thursday 18 Dec 2014 (Local Time) from KRCX Reporting Station
Overcast Overcast  
Wind Chill: 23°   Ceiling: 800
Heat Index: 23°   Visibility: 10mi
Dew Point: 21°   Wind: 0mph
Humidity: 90%   Direction: NA
Pressure: 30.26"   Gusts: NA
Location:  45.8°N, 91.12°W
Report Text: KRCX 190215Z AUTO 00000KT 10SM OVC008 M05/M06 A3026 RMK AO2 T10481062
Loading
Personal Weather Stations






























Interactive Weather Map New forecast layout! Learn more

10-Day Weather Forecast

Advertisements
Track Severe Weather on mobile